sensor_id;sensor_type;location;lat;lon;timestamp;P1;durP1;ratioP1;P2;durP2;ratioP2
70487;SDS011;57976;48.174;16.370;2023-05-07T00:00:12;5.70;;;1.90;;
70487;SDS011;57976;48.174;16.370;2023-05-07T00:02:17;5.00;;;2.20;;
70487;SDS011;57976;48.174;16.370;2023-05-07T00:04:22;5.00;;;2.30;;
70487;SDS011;57976;48.174;16.370;2023-05-07T00:06:27;7.30;;;4.20;;
70487;SDS011;57976;48.174;16.370;2023-05-07T00:08:32;7.50;;;3.90;;
70487;SDS011;57976;48.174;16.370;2023-05-07T00:10:37;5.50;;;2.40;;
70487;SDS011;57976;48.174;16.370;2023-05-07T00:12:42;5.40;;;2.00;;
70487;SDS011;57976;48.174;16.370;2023-05-07T00:14:47;5.10;;;2.00;;
70487;SDS011;57976;48.174;16.370;2023-05-07T00:16:51;5.10;;;1.80;;
70487;SDS011;57976;48.174;16.370;2023-05-07T00:18:57;5.50;;;1.80;;
70487;SDS011;57976;48.174;16.370;2023-05-07T00:21:02;4.50;;;1.80;;
70487;SDS011;57976;48.174;16.370;2023-05-07T00:23:06;4.70;;;1.70;;
70487;SDS011;57976;48.174;16.370;2023-05-07T00:25:12;4.70;;;1.90;;
70487;SDS011;57976;48.174;16.370;2023-05-07T00:27:17;4.80;;;1.90;;
70487;SDS011;57976;48.174;16.370;2023-05-07T00:29:21;4.50;;;1.80;;
70487;SDS011;57976;48.174;16.370;2023-05-07T00:31:26;4.60;;;1.90;;
70487;SDS011;57976;48.174;16.370;2023-05-07T00:33:31;4.80;;;1.90;;
70487;SDS011;57976;48.174;16.370;2023-05-07T00:35:36;6.30;;;1.90;;
70487;SDS011;57976;48.174;16.370;2023-05-07T00:37:40;5.40;;;2.10;;
70487;SDS011;57976;48.174;16.370;2023-05-07T00:39:45;6.90;;;2.70;;
70487;SDS011;57976;48.174;16.370;2023-05-07T00:41:50;5.50;;;2.00;;
70487;SDS011;57976;48.174;16.370;2023-05-07T00:43:54;5.90;;;1.90;;
70487;SDS011;57976;48.174;16.370;2023-05-07T00:45:59;5.50;;;2.00;;
70487;SDS011;57976;48.174;16.370;2023-05-07T00:48:04;5.40;;;2.10;;
70487;SDS011;57976;48.174;16.370;2023-05-07T00:50:09;5.60;;;2.40;;
70487;SDS011;57976;48.174;16.370;2023-05-07T00:52:15;5.60;;;2.30;;
70487;SDS011;57976;48.174;16.370;2023-05-07T00:54:22;5.80;;;2.40;;
70487;SDS011;57976;48.174;16.370;2023-05-07T00:56:27;5.00;;;2.20;;
70487;SDS011;57976;48.174;16.370;2023-05-07T00:58:32;5.70;;;2.30;;
70487;SDS011;57976;48.174;16.370;2023-05-07T01:00:37;5.40;;;2.50;;
70487;SDS011;57976;48.174;16.370;2023-05-07T01:04:33;5.40;;;2.30;;
70487;SDS011;57976;48.174;16.370;2023-05-07T01:06:39;5.40;;;2.20;;
70487;SDS011;57976;48.174;16.370;2023-05-07T01:08:45;5.90;;;2.10;;
70487;SDS011;57976;48.174;16.370;2023-05-07T01:10:50;5.20;;;2.20;;
70487;SDS011;57976;48.174;16.370;2023-05-07T01:12:56;5.20;;;2.00;;
70487;SDS011;57976;48.174;16.370;2023-05-07T01:15:02;5.10;;;1.90;;
70487;SDS011;57976;48.174;16.370;2023-05-07T01:17:08;5.50;;;1.90;;
70487;SDS011;57976;48.174;16.370;2023-05-07T01:19:13;4.70;;;1.90;;
70487;SDS011;57976;48.174;16.370;2023-05-07T01:21:20;5.10;;;1.80;;
70487;SDS011;57976;48.174;16.370;2023-05-07T01:23:31;4.90;;;1.90;;
70487;SDS011;57976;48.174;16.370;2023-05-07T01:25:38;3.90;;;1.50;;
70487;SDS011;57976;48.174;16.370;2023-05-07T01:27:43;4.40;;;1.60;;
70487;SDS011;57976;48.174;16.370;2023-05-07T01:29:48;4.10;;;1.40;;
70487;SDS011;57976;48.174;16.370;2023-05-07T01:31:53;4.40;;;1.60;;
